Time;durP1;ratioP1;P1;durP2;ratioP2;P2;SDS_P1;SDS_P2;PMS_P1;PMS_P2;Temp;Humidity;BMP_temperature;BMP_pressure;BME280_temperature;BME280_humidity;BME280_pressure;Samples;Min_cycle;Max_cycle;Signal;HPM_P1;HPM_P2
2021/01/22 00:02:00;;;;;;;2.17;1.23;;;;;;;11.06;76.17;97364.34;7893615;36;20516;-69
2021/01/22 00:07:03;;;;;;;0.88;0.88;;;;;;;10.99;75.80;97352.69;7876411;36;20456;-70
2021/01/22 00:12:07;;;;;;;1.75;1.25;;;;;;;11.31;74.64;97356.13;7900940;36;20201;-69
2021/01/22 00:17:10;;;;;;;0.80;0.80;;;;;;;11.19;73.20;97362.88;7900721;36;20451;-69
2021/01/22 00:22:13;;;;;;;0.60;0.60;;;;;;;11.39;72.06;97347.19;7900728;36;20645;-70
2021/01/22 00:27:16;;;;;;;0.88;0.80;;;;;;;11.51;72.24;97351.91;7899919;36;20475;-69
2021/01/22 00:32:19;;;;;;;3.00;1.13;;;;;;;11.52;72.29;97342.88;7874613;36;20254;-69
2021/01/22 00:37:21;;;;;;;0.80;0.80;;;;;;;11.53;71.64;97344.53;7894808;36;20451;-69
2021/01/22 00:42:25;;;;;;;0.77;0.77;;;;;;;11.29;73.71;97326.88;7893609;36;20570;-70
2021/01/22 00:47:27;;;;;;;1.35;0.90;;;;;;;11.12;74.71;97320.03;7894255;36;20530;-70
2021/01/22 00:52:30;;;;;;;0.77;0.77;;;;;;;11.08;74.21;97302.72;7895163;36;20475;-69
2021/01/22 00:57:35;;;;;;;1.52;0.68;;;;;;;11.15;73.59;97284.13;7816372;36;21525;-69
2021/01/22 01:02:38;;;;;;;0.60;0.60;;;;;;;11.20;72.46;97308.47;8083938;36;20764;-69
2021/01/22 01:07:41;;;;;;;0.80;0.80;;;;;;;11.00;73.95;97284.09;8105958;36;20686;-69
2021/01/22 01:12:45;;;;;;;0.80;0.80;;;;;;;10.97;73.74;97313.81;8120570;36;20235;-69
2021/01/22 01:18:16;;;;;;;0.70;0.70;;;;;;;10.99;73.70;97271.75;8130398;36;20604;-69
2021/01/22 01:23:26;;;;;;;0.70;0.70;;;;;;;11.25;73.04;97244.63;8141575;36;21574;-70
2021/01/22 01:28:30;;;;;;;1.00;0.90;;;;;;;11.21;72.65;97264.69;8140244;36;20301;-69
2021/01/22 01:33:32;;;;;;;1.20;0.90;;;;;;;11.52;72.03;97253.84;8143644;36;20734;-69
2021/01/22 01:38:34;;;;;;;1.55;0.80;;;;;;;11.16;72.48;97254.53;8140961;36;20639;-70
2021/01/22 01:43:38;;;;;;;1.30;1.13;;;;;;;11.34;72.08;97233.63;8111528;36;20233;-70
2021/01/22 01:48:40;;;;;;;0.90;0.68;;;;;;;11.26;71.53;97225.72;8072757;36;20200;-70
2021/01/22 01:53:43;;;;;;;1.55;1.20;;;;;;;11.51;69.64;97244.16;8072306;36;20861;-70
2021/01/22 01:58:46;;;;;;;0.70;0.70;;;;;;;11.52;69.75;97214.56;8120098;36;20271;-70
2021/01/22 02:03:49;;;;;;;1.70;0.98;;;;;;;11.75;69.56;97203.75;8140719;36;20263;-70
2021/01/22 02:08:52;;;;;;;1.38;1.05;;;;;;;11.56;69.93;97213.16;8140151;36;20301;-70
2021/01/22 02:13:56;;;;;;;0.88;0.88;;;;;;;11.35;71.68;97213.94;8140660;36;20248;-70
2021/01/22 02:19:00;;;;;;;2.75;1.10;;;;;;;11.22;73.79;97208.41;8143322;36;20243;-69
2021/01/22 02:24:10;;;;;;;2.92;1.25;;;;;;;11.09;73.83;97198.34;8142062;36;20240;-70
2021/01/22 02:29:16;;;;;;;4.30;1.20;;;;;;;10.94;74.38;97205.50;8140150;36;20244;-71
2021/01/22 02:34:24;;;;;;;2.25;1.00;;;;;;;10.79;74.77;97207.34;8140078;36;20279;-71
2021/01/22 02:39:32;;;;;;;5.53;1.10;;;;;;;10.97;73.77;97194.50;8143712;36;20280;-70
2021/01/22 02:44:36;;;;;;;1.20;1.10;;;;;;;11.18;73.65;97207.09;8144729;36;20275;-71
2021/01/22 02:49:39;;;;;;;2.53;0.90;;;;;;;10.74;74.25;97228.41;8144488;36;20240;-71
2021/01/22 02:54:42;;;;;;;1.40;1.30;;;;;;;10.85;74.01;97217.28;8143859;36;20247;-71
2021/01/22 02:59:58;;;;;;;0.88;0.85;;;;;;;11.26;73.46;97204.34;8144263;36;20236;-71
2021/01/22 03:05:01;;;;;;;0.70;0.70;;;;;;;10.94;72.45;97210.03;8144258;36;20286;-70
2021/01/22 03:10:10;;;;;;;1.55;0.82;;;;;;;11.21;72.61;97195.22;8144092;36;20229;-71
2021/01/22 03:15:15;;;;;;;0.90;0.85;;;;;;;11.00;73.02;97193.28;8143508;36;20769;-71
2021/01/22 03:20:21;;;;;;;0.90;0.80;;;;;;;11.23;72.93;97203.88;8143790;36;20228;-70
2021/01/22 03:25:23;;;;;;;0.95;0.60;;;;;;;10.97;73.39;97217.66;8143469;36;20374;-71
2021/01/22 03:30:27;;;;;;;0.82;0.80;;;;;;;10.53;77.67;97267.31;8144019;36;20279;-73
2021/01/22 03:35:31;;;;;;;0.60;0.60;;;;;;;9.00;84.45;97359.13;8143611;36;20248;-72
2021/01/22 03:40:33;;;;;;;1.02;1.02;;;;;;;8.24;84.69;97382.25;8144604;36;20757;-71
2021/01/22 03:45:36;;;;;;;1.10;1.00;;;;;;;8.08;84.47;97390.97;8143977;36;21508;-71
2021/01/22 03:50:39;;;;;;;0.80;0.80;;;;;;;6.73;86.16;97409.13;8143363;36;20643;-71
2021/01/22 03:55:41;;;;;;;1.02;1.02;;;;;;;6.82;86.36;97456.81;8143243;36;21451;-71
2021/01/22 04:00:45;;;;;;;1.00;1.00;;;;;;;6.47;86.55;97505.31;8143194;36;20237;-71
2021/01/22 04:05:47;;;;;;;0.90;0.90;;;;;;;6.16;85.69;97534.75;8143091;36;21903;-71
2021/01/22 04:10:49;;;;;;;0.80;0.80;;;;;;;6.22;85.43;97578.41;8144029;36;20292;-71
2021/01/22 04:15:53;;;;;;;0.70;0.70;;;;;;;6.24;84.71;97558.72;8120975;36;20240;-71
2021/01/22 04:20:56;;;;;;;0.67;0.67;;;;;;;6.06;84.43;97581.66;8143386;36;21374;-70
2021/01/22 04:25:58;;;;;;;0.70;0.70;;;;;;;6.03;84.15;97619.03;8142663;36;20332;-70
2021/01/22 04:31:01;;;;;;;0.70;0.70;;;;;;;6.13;84.20;97645.53;8142448;36;20243;-70
2021/01/22 04:36:05;;;;;;;0.90;0.90;;;;;;;5.66;84.39;97651.50;8142842;36;20240;-70
2021/01/22 04:41:07;;;;;;;1.03;0.90;;;;;;;6.05;83.65;97651.53;8142193;36;20267;-70
2021/01/22 04:46:11;;;;;;;1.40;1.30;;;;;;;5.82;83.81;97669.50;8131560;36;20317;-71
2021/01/22 04:51:16;;;;;;;1.87;1.23;;;;;;;5.82;83.73;97698.66;8141959;36;20248;-71
2021/01/22 04:56:20;;;;;;;1.03;1.03;;;;;;;5.49;83.74;97713.09;8141594;36;20364;-71
2021/01/22 05:01:23;;;;;;;2.63;2.00;;;;;;;5.56;83.01;97711.56;8141924;36;20338;-71
2021/01/22 05:06:26;;;;;;;2.20;1.77;;;;;;;5.43;82.62;97722.44;8142510;36;20240;-71
2021/01/22 05:11:28;;;;;;;2.60;1.83;;;;;;;5.57;82.17;97731.78;8142374;36;20220;-70
2021/01/22 05:16:33;;;;;;;2.33;1.80;;;;;;;5.91;82.45;97745.50;8141579;36;20781;-71
2021/01/22 05:21:40;;;;;;;2.93;2.03;;;;;;;5.83;81.66;97740.06;8141771;36;20601;-70
2021/01/22 05:26:42;;;;;;;4.30;2.47;;;;;;;5.76;82.02;97733.66;8142120;36;20734;-70
2021/01/22 05:31:45;;;;;;;3.20;2.03;;;;;;;5.70;81.67;97742.94;8142216;36;20757;-70
2021/01/22 05:36:49;;;;;;;2.97;1.93;;;;;;;5.67;81.38;97759.13;8142448;36;20245;-70
2021/01/22 05:41:53;;;;;;;1.37;1.20;;;;;;;5.58;81.80;97778.47;8144039;36;20721;-70
2021/01/22 05:47:07;;;;;;;2.93;2.13;;;;;;;5.58;81.55;97794.38;8141870;36;20279;-70
2021/01/22 05:52:20;;;;;;;3.07;1.70;;;;;;;5.80;80.67;97806.56;8142627;36;21597;-70
2021/01/22 05:57:24;;;;;;;3.27;2.27;;;;;;;5.74;80.59;97802.66;8121013;36;20650;-70
2021/01/22 06:02:29;;;;;;;4.03;2.67;;;;;;;5.92;80.64;97804.63;8142119;36;20279;-70
2021/01/22 06:07:31;;;;;;;3.73;2.43;;;;;;;5.87;80.50;97826.25;8141174;36;20243;-71
2021/01/22 06:12:34;;;;;;;4.73;2.90;;;;;;;5.87;80.15;97814.78;8143147;36;20301;-70
2021/01/22 06:17:38;;;;;;;4.47;3.03;;;;;;;5.85;80.45;97819.41;8146052;36;20273;-71
2021/01/22 06:22:47;;;;;;;4.47;2.40;;;;;;;5.80;79.78;97836.53;8145378;36;20237;-71
2021/01/22 06:27:51;;;;;;;6.77;2.80;;;;;;;5.85;79.51;97844.09;8145338;36;20256;-71
2021/01/22 06:32:58;;;;;;;2.70;2.07;;;;;;;5.67;80.20;97843.03;8145761;36;20623;-70
2021/01/22 06:38:06;;;;;;;3.93;2.60;;;;;;;6.13;79.64;97853.13;8144972;36;20734;-70
2021/01/22 06:43:09;;;;;;;7.13;4.37;;;;;;;6.31;79.65;97853.31;8145524;36;20243;-71
2021/01/22 06:48:13;;;;;;;4.63;3.33;;;;;;;5.94;78.48;97863.66;8145135;36;20289;-71
2021/01/22 06:53:17;;;;;;;6.20;3.00;;;;;;;5.95;79.05;97873.28;8124157;36;20991;-71
2021/01/22 06:58:27;;;;;;;10.33;4.53;;;;;;;6.23;78.80;97883.16;8144867;36;20723;-70
2021/01/22 07:03:50;;;;;;;11.83;5.10;;;;;;;6.02;78.21;97887.69;8144069;36;20268;-70
2021/01/22 07:08:53;;;;;;;9.03;4.43;;;;;;;6.37;78.41;97894.34;8144008;36;20829;-71
2021/01/22 07:13:55;;;;;;;11.60;5.40;;;;;;;6.20;77.60;97886.06;8144350;36;21541;-70
2021/01/22 07:19:02;;;;;;;11.80;5.87;;;;;;;6.40;78.58;97908.16;8144005;36;20295;-70
2021/01/22 07:24:12;;;;;;;16.60;6.07;;;;;;;6.25;77.79;97901.56;8143322;36;20652;-70
2021/01/22 07:29:19;;;;;;;12.50;6.60;;;;;;;6.23;78.33;97907.00;8143230;36;20268;-71
2021/01/22 07:34:51;;;;;;;12.73;6.83;;;;;;;6.21;77.99;97919.56;8143011;36;20271;-70
2021/01/22 07:39:56;;;;;;;17.93;7.60;;;;;;;6.51;77.45;97922.28;8103083;36;20370;-71
2021/01/22 07:45:09;;;;;;;22.63;10.23;;;;;;;6.38;77.63;97928.66;8140959;36;20829;-70
2021/01/22 07:50:15;;;;;;;19.53;8.67;;;;;;;6.53;77.41;97928.31;8144688;36;20232;-70
2021/01/22 07:55:19;;;;;;;18.80;8.60;;;;;;;6.24;76.83;97945.78;8143951;36;20486;-69
2021/01/22 08:00:23;;;;;;;30.90;11.30;;;;;;;6.43;77.26;97942.34;8141713;36;21082;-70
2021/01/22 08:05:31;;;;;;;13.93;6.97;;;;;;;6.59;76.59;97970.19;8105954;36;20243;-69
2021/01/22 08:10:34;;;;;;;16.17;8.03;;;;;;;6.27;76.38;97959.75;8142569;36;20236;-69
2021/01/22 08:15:37;;;;;;;19.53;9.13;;;;;;;6.41;76.49;97976.13;8142874;36;20994;-69
2021/01/22 08:20:50;;;;;;;19.17;9.10;;;;;;;6.41;76.55;97967.34;8111035;36;21976;-69
2021/01/22 08:25:59;;;;;;;17.33;8.07;;;;;;;6.51;76.18;97962.91;7886895;36;20668;-69
2021/01/22 08:31:06;;;;;;;24.23;10.77;;;;;;;6.63;76.67;97975.06;7878095;36;20494;-69
2021/01/22 08:36:10;;;;;;;20.02;10.27;;;;;;;6.60;75.94;97979.81;7873292;36;20235;-69
2021/01/22 08:41:23;;;;;;;8.00;4.22;;;;;;;6.60;75.79;97991.25;7878344;36;20578;-69
2021/01/22 08:46:26;;;;;;;21.55;9.15;;;;;;;6.87;74.83;97981.81;7905383;36;20150;-69
2021/01/22 08:51:30;;;;;;;24.38;10.60;;;;;;;6.94;74.70;97996.22;7911684;36;20669;-69
2021/01/22 08:56:33;;;;;;;16.42;7.65;;;;;;;6.66;75.02;97993.38;7919276;36;21747;-69
2021/01/22 09:01:56;;;;;;;18.13;8.70;;;;;;;7.11;74.01;98006.16;7919797;36;20597;-69
2021/01/22 09:07:01;;;;;;;16.38;8.95;;;;;;;7.02;74.59;98003.47;7907267;36;20172;-69
2021/01/22 09:12:12;;;;;;;13.45;7.07;;;;;;;6.70;74.71;98027.59;7874450;36;20499;-69
2021/01/22 09:17:34;;;;;;;17.77;9.73;;;;;;;7.10;73.92;98027.50;7857796;36;20478;-69
2021/01/22 09:22:38;;;;;;;23.35;10.73;;;;;;;7.23;74.10;98029.91;7865046;36;20181;-69
2021/01/22 09:27:42;;;;;;;21.55;9.48;;;;;;;6.82;74.07;98045.06;7870735;36;20458;-69
2021/01/22 09:32:46;;;;;;;18.65;8.32;;;;;;;7.20;73.05;98032.84;7890452;36;20510;-69
2021/01/22 09:37:50;;;;;;;15.48;7.57;;;;;;;7.35;73.00;98039.44;7903447;36;20192;-69
2021/01/22 09:42:53;;;;;;;20.15;6.20;;;;;;;6.95;73.49;98035.06;7904795;36;21009;-69
2021/01/22 09:47:56;;;;;;;19.80;9.40;;;;;;;7.53;72.12;98013.81;7875760;36;20565;-69
2021/01/22 09:52:59;;;;;;;19.17;9.13;;;;;;;7.46;72.05;98031.31;7924452;36;20200;-69
2021/01/22 09:58:03;;;;;;;21.73;9.77;;;;;;;7.48;73.12;98039.13;7921191;36;20721;-69
2021/01/22 10:03:06;;;;;;;10.82;4.50;;;;;;;7.38;72.75;98051.56;7921641;36;20149;-69
2021/01/22 10:08:10;;;;;;;15.20;8.35;;;;;;;7.35;73.08;98058.88;7905618;36;21249;-69
2021/01/22 10:13:12;;;;;;;18.83;9.15;;;;;;;7.59;72.60;98057.59;7906334;36;20209;-70
2021/01/22 10:18:15;;;;;;;24.75;10.57;;;;;;;7.63;71.96;98060.84;7923761;36;20225;-70
2021/01/22 10:23:18;;;;;;;20.17;10.20;;;;;;;7.56;72.09;98074.66;7896294;36;20957;-70
2021/01/22 10:28:21;;;;;;;17.33;7.57;;;;;;;7.36;72.79;98091.56;7864214;36;21572;-70
2021/01/22 10:33:23;;;;;;;14.43;7.43;;;;;;;7.24;71.63;98088.22;7849462;36;20990;-70
2021/01/22 10:38:27;;;;;;;12.52;6.90;;;;;;;7.48;72.21;98098.41;7829250;36;20551;-70
2021/01/22 10:43:30;;;;;;;15.18;8.15;;;;;;;7.67;71.22;98108.22;7879848;36;20438;-70
2021/01/22 10:48:32;;;;;;;13.90;7.20;;;;;;;7.63;70.78;98112.16;7876963;36;20166;-70
2021/01/22 10:53:36;;;;;;;12.95;6.88;;;;;;;7.64;70.49;98107.66;7862394;36;20235;-70
2021/01/22 10:58:39;;;;;;;18.00;8.85;;;;;;;7.88;69.24;98126.69;7855904;36;20293;-70
2021/01/22 11:03:41;;;;;;;4.10;3.53;;;;;;;8.06;68.65;98142.75;7856066;36;20155;-70
2021/01/22 11:08:45;;;;;;;8.60;4.38;;;;;;;7.89;68.91;98156.78;7851501;36;20666;-69
2021/01/22 11:13:47;;;;;;;16.98;7.60;;;;;;;8.18;68.26;98156.78;7854909;36;20564;-70
2021/01/22 11:18:49;;;;;;;14.48;7.07;;;;;;;8.24;68.53;98151.72;7833147;36;20645;-70
2021/01/22 11:23:53;;;;;;;11.43;5.73;;;;;;;7.87;68.66;98174.66;7852969;36;20450;-70
2021/01/22 11:28:55;;;;;;;15.30;8.18;;;;;;;8.30;68.51;98160.94;7850768;36;20203;-70
2021/01/22 11:33:58;;;;;;;18.33;8.48;;;;;;;8.22;68.25;98158.16;7855333;36;20504;-69
2021/01/22 11:39:02;;;;;;;16.40;8.75;;;;;;;8.18;68.00;98151.44;7847629;36;20477;-70
2021/01/22 11:44:05;;;;;;;9.20;5.30;;;;;;;7.85;68.07;98169.50;7827561;36;20212;-70
2021/01/22 11:49:08;;;;;;;16.73;8.52;;;;;;;8.53;67.33;98161.50;7850829;36;20634;-69
2021/01/22 11:54:11;;;;;;;8.15;4.90;;;;;;;8.28;66.61;98178.03;7830565;36;22241;-69
2021/01/22 11:59:14;;;;;;;12.50;5.32;;;;;;;9.03;64.24;98181.66;7829706;36;20245;-70
2021/01/22 12:04:16;;;;;;;13.75;6.78;;;;;;;9.08;64.30;98177.56;7847247;36;20469;-69
2021/01/22 12:09:19;;;;;;;14.45;8.05;;;;;;;8.56;66.12;98181.66;7846769;36;20481;-69
2021/01/22 12:14:22;;;;;;;11.00;5.75;;;;;;;7.98;67.01;98180.72;7849112;36;20782;-70
2021/01/22 12:19:24;;;;;;;14.05;6.32;;;;;;;8.34;66.10;98180.13;7824147;36;20734;-70
2021/01/22 12:24:28;;;;;;;17.50;8.35;;;;;;;8.74;64.71;98174.59;7850088;36;20194;-69
2021/01/22 12:29:31;;;;;;;9.02;5.32;;;;;;;8.62;64.05;98167.78;7831463;36;20499;-69
2021/01/22 12:34:34;;;;;;;11.60;6.32;;;;;;;8.73;64.26;98159.63;7849905;36;20459;-69
2021/01/22 12:39:38;;;;;;;8.23;4.90;;;;;;;8.76;62.72;98169.97;7847374;36;20471;-69
2021/01/22 12:44:41;;;;;;;11.95;6.85;;;;;;;9.87;60.36;98154.75;7856241;36;20158;-69
2021/01/22 12:49:44;;;;;;;14.00;6.67;;;;;;;9.58;60.43;98160.31;7847726;36;20654;-69
2021/01/22 12:54:48;;;;;;;14.40;6.38;;;;;;;9.38;62.09;98154.28;7850505;36;21027;-69
2021/01/22 12:59:50;;;;;;;5.90;2.80;;;;;;;8.94;60.62;98171.84;7822611;36;20150;-69
2021/01/22 13:04:53;;;;;;;9.88;5.43;;;;;;;9.70;58.95;98177.75;7837570;36;20537;-69
2021/01/22 13:09:56;;;;;;;5.97;4.35;;;;;;;8.72;60.11;98189.03;7853334;36;20503;-70
2021/01/22 13:14:58;;;;;;;6.28;3.80;;;;;;;8.37;61.62;98178.03;7852379;36;20162;-70
2021/01/22 13:20:01;;;;;;;7.82;5.07;;;;;;;8.28;60.95;98189.50;7852466;36;20490;-70
2021/01/22 13:25:08;;;;;;;6.75;4.63;;;;;;;8.10;62.28;98193.88;7846811;36;21979;-69
2021/01/22 13:30:12;;;;;;;10.68;6.00;;;;;;;8.34;62.65;98193.44;7822200;36;20522;-70
2021/01/22 13:35:15;;;;;;;6.13;4.65;;;;;;;8.15;63.33;98202.28;7841808;36;20940;-70
2021/01/22 13:40:18;;;;;;;11.40;6.07;;;;;;;8.30;63.42;98207.97;7848333;36;20448;-70
2021/01/22 13:45:20;;;;;;;9.45;5.90;;;;;;;8.53;61.37;98211.19;7859019;36;20145;-70
2021/01/22 13:50:36;;;;;;;12.68;6.70;;;;;;;8.66;61.56;98217.06;7856887;36;20160;-70
2021/01/22 13:55:40;;;;;;;14.35;7.68;;;;;;;9.16;59.88;98232.78;7865276;36;20551;-70
2021/01/22 14:00:43;;;;;;;11.73;6.78;;;;;;;9.74;58.16;98229.81;7869344;36;20509;-70
2021/01/22 14:05:46;;;;;;;11.25;6.40;;;;;;;9.47;58.52;98233.34;7845109;36;20502;-70
2021/01/22 14:10:50;;;;;;;7.75;4.50;;;;;;;9.58;58.41;98249.13;7825018;36;21014;-69
2021/01/22 14:15:52;;;;;;;13.30;6.78;;;;;;;8.81;59.88;98260.06;7843548;36;20194;-69
2021/01/22 14:20:55;;;;;;;7.28;5.03;;;;;;;8.29;61.08;98271.00;7851770;36;21151;-69
2021/01/22 14:25:58;;;;;;;9.10;4.67;;;;;;;8.98;58.24;98287.78;7858561;36;20460;-69
2021/01/22 14:31:01;;;;;;;8.82;5.13;;;;;;;9.76;56.30;98285.66;7837798;36;20499;-68
2021/01/22 14:36:05;;;;;;;8.55;4.13;;;;;;;9.73;55.97;98293.94;7870026;36;20557;-69
2021/01/22 14:41:09;;;;;;;5.72;4.70;;;;;;;9.87;55.63;98306.78;7875531;36;20503;-70
2021/01/22 14:46:12;;;;;;;4.25;3.63;;;;;;;9.30;57.45;98309.56;7855015;36;21926;-69
2021/01/22 14:51:15;;;;;;;9.85;5.68;;;;;;;9.37;56.77;98309.81;7875724;36;20811;-69
2021/01/22 14:56:18;;;;;;;7.95;6.07;;;;;;;9.01;58.15;98319.44;7909474;36;20468;-69
2021/01/22 15:01:20;;;;;;;11.70;5.88;;;;;;;9.13;58.17;98324.47;7919614;36;20625;-69
2021/01/22 15:06:23;;;;;;;10.80;5.80;;;;;;;8.73;59.35;98329.16;7854675;36;20452;-70
2021/01/22 15:11:26;;;;;;;7.28;4.75;;;;;;;8.45;60.54;98334.34;7866311;36;20498;-69
2021/01/22 15:16:28;;;;;;;10.82;6.43;;;;;;;8.61;60.55;98329.31;7881632;36;20205;-69
2021/01/22 15:21:31;;;;;;;11.07;6.32;;;;;;;8.49;60.77;98342.88;7894430;36;20188;-69
2021/01/22 15:26:34;;;;;;;7.32;5.13;;;;;;;8.26;61.10;98348.44;7890035;36;20790;-69
2021/01/22 15:31:36;;;;;;;12.25;6.30;;;;;;;8.36;61.25;98356.41;7886824;36;20138;-69
2021/01/22 15:36:40;;;;;;;9.73;5.75;;;;;;;8.16;62.06;98363.53;7885762;36;20477;-69
2021/01/22 15:41:43;;;;;;;10.02;6.57;;;;;;;8.18;61.68;98357.09;7881748;36;20209;-69
2021/01/22 15:46:46;;;;;;;10.07;5.95;;;;;;;7.95;61.89;98360.94;7899363;36;20513;-69
2021/01/22 15:51:48;;;;;;;11.88;5.72;;;;;;;7.57;62.73;98363.31;7917500;36;20965;-69
2021/01/22 15:56:52;;;;;;;7.85;5.47;;;;;;;7.82;62.34;98358.53;7893588;35;20482;-69
2021/01/22 16:01:54;;;;;;;13.07;6.20;;;;;;;7.44;63.22;98368.00;7947708;35;20772;-68
2021/01/22 16:06:56;;;;;;;8.43;5.82;;;;;;;7.46;63.11;98363.41;7915834;36;20664;-69
2021/01/22 16:12:00;;;;;;;9.82;6.38;;;;;;;7.40;63.31;98360.44;7889756;36;20503;-68
2021/01/22 16:17:04;;;;;;;10.45;6.10;;;;;;;7.36;63.59;98351.88;7872965;36;20158;-69
2021/01/22 16:22:07;;;;;;;12.75;7.00;;;;;;;7.31;63.67;98360.25;7883812;36;20446;-69
2021/01/22 16:27:11;;;;;;;8.98;6.50;;;;;;;7.38;63.52;98373.00;7910729;36;20201;-68
2021/01/22 16:32:14;;;;;;;9.68;6.32;;;;;;;7.34;63.95;98375.06;7898274;36;20446;-69
2021/01/22 16:37:22;;;;;;;11.27;7.05;;;;;;;7.32;63.86;98391.16;7889529;36;20170;-69
2021/01/22 16:42:29;;;;;;;12.18;7.03;;;;;;;7.32;64.07;98382.31;7889735;36;21085;-70
2021/01/22 16:47:32;;;;;;;12.25;7.40;;;;;;;7.32;63.74;98387.63;7886119;36;20791;-70
2021/01/22 16:52:34;;;;;;;15.85;8.02;;;;;;;7.32;63.63;98399.13;7881350;36;20197;-70
2021/01/22 16:57:39;;;;;;;13.27;8.00;;;;;;;7.28;63.77;98404.81;7877643;36;20489;-70
2021/01/22 17:02:41;;;;;;;10.70;7.65;;;;;;;7.20;63.94;98394.00;7880541;36;22015;-70
2021/01/22 17:07:44;;;;;;;14.63;7.80;;;;;;;7.17;63.87;98395.09;7864804;36;20519;-69
2021/01/22 17:12:47;;;;;;;15.98;7.72;;;;;;;7.13;64.05;98406.97;7862565;36;20204;-69
2021/01/22 17:17:50;;;;;;;17.42;7.30;;;;;;;7.11;63.59;98408.91;7906782;36;21769;-70
2021/01/22 17:22:54;;;;;;;12.52;7.47;;;;;;;6.99;64.27;98413.41;7897079;36;20246;-70
2021/01/22 17:27:57;;;;;;;14.95;7.93;;;;;;;6.89;64.64;98423.13;7881511;36;20157;-69
2021/01/22 17:33:00;;;;;;;12.38;7.38;;;;;;;6.70;65.40;98429.09;7875680;36;20496;-70
2021/01/22 17:38:02;;;;;;;13.82;7.25;;;;;;;6.66;65.52;98432.97;7878793;36;20169;-70
2021/01/22 17:43:06;;;;;;;16.13;7.65;;;;;;;6.62;65.67;98436.84;7864417;36;21036;-70
2021/01/22 17:48:10;;;;;;;17.38;9.07;;;;;;;6.66;65.71;98435.63;7921233;36;20467;-70
2021/01/22 17:53:12;;;;;;;19.55;8.60;;;;;;;6.66;65.71;98448.88;7921250;36;20181;-70
2021/01/22 17:58:15;;;;;;;17.20;8.77;;;;;;;6.71;65.62;98440.56;7904873;36;21450;-69
2021/01/22 18:03:18;;;;;;;12.13;8.63;;;;;;;6.68;65.69;98460.22;7919978;36;20479;-69
2021/01/22 18:08:21;;;;;;;20.90;10.10;;;;;;;6.57;66.11;98468.22;7910681;36;20628;-70
2021/01/22 18:13:24;;;;;;;17.77;10.60;;;;;;;6.66;65.86;98464.81;7882840;36;20549;-69
2021/01/22 18:18:27;;;;;;;17.02;9.13;;;;;;;6.68;65.70;98478.81;7900574;36;20193;-69
2021/01/22 18:23:29;;;;;;;14.55;8.75;;;;;;;6.57;65.99;98487.63;7901671;36;20170;-70
2021/01/22 18:28:33;;;;;;;13.32;8.70;;;;;;;6.54;65.98;98487.88;7898004;36;20528;-69
2021/01/22 18:33:35;;;;;;;16.38;8.68;;;;;;;6.51;66.18;98489.94;7883991;36;20159;-70
2021/01/22 18:38:38;;;;;;;19.70;9.95;;;;;;;6.35;66.59;98496.47;7866104;36;20453;-69
2021/01/22 18:43:42;;;;;;;16.23;9.05;;;;;;;6.43;66.06;98491.38;7862270;36;20135;-70
2021/01/22 18:48:48;;;;;;;14.90;8.73;;;;;;;6.32;66.75;98499.34;7859035;36;20585;-70
2021/01/22 18:53:50;;;;;;;17.13;9.75;;;;;;;6.23;66.96;98502.75;7864351;36;20232;-70
2021/01/22 18:58:54;;;;;;;16.25;8.80;;;;;;;6.22;67.33;98509.84;7912619;36;20460;-71
2021/01/22 19:03:56;;;;;;;14.50;9.35;;;;;;;6.25;67.30;98519.34;7894829;36;20201;-69
2021/01/22 19:08:59;;;;;;;18.75;9.38;;;;;;;6.36;66.96;98521.16;7907225;36;20441;-70
2021/01/22 19:14:03;;;;;;;15.48;9.95;;;;;;;6.36;66.81;98526.47;7906471;36;20176;-70
2021/01/22 19:19:05;;;;;;;18.75;9.63;;;;;;;6.26;66.69;98528.19;7915103;36;20479;-69
2021/01/22 19:24:08;;;;;;;20.35;11.00;;;;;;;6.20;66.67;98542.78;7907177;36;25750;-70
2021/01/22 19:29:13;;;;;;;21.98;10.18;;;;;;;6.19;67.14;98541.91;7897860;36;20458;-71
2021/01/22 19:34:16;;;;;;;18.02;10.30;;;;;;;6.17;66.88;98548.28;7900624;36;20561;-70
2021/01/22 19:39:19;;;;;;;16.65;10.55;;;;;;;6.19;67.24;98543.72;7896794;36;20534;-70
2021/01/22 19:44:23;;;;;;;17.92;10.45;;;;;;;6.20;67.04;98534.81;7898262;36;20477;-70
2021/01/22 19:49:26;;;;;;;20.55;10.25;;;;;;;6.20;67.15;98538.31;7896358;36;20465;-69
2021/01/22 19:54:28;;;;;;;16.75;10.32;;;;;;;6.16;66.86;98541.31;7894103;36;20148;-70
2021/01/22 19:59:32;;;;;;;18.35;10.63;;;;;;;6.05;67.06;98536.84;7873504;36;20578;-69
2021/01/22 20:04:34;;;;;;;25.08;12.93;;;;;;;5.85;67.31;98541.00;7872867;36;20586;-70
2021/01/22 20:09:38;;;;;;;25.25;15.07;;;;;;;5.51;67.22;98553.28;7901026;36;20567;-70
2021/01/22 20:14:42;;;;;;;25.35;13.38;;;;;;;5.31;68.08;98550.34;7892411;36;20232;-70
2021/01/22 20:19:45;;;;;;;22.20;12.25;;;;;;;5.39;68.69;98548.94;7901656;36;20665;-69
2021/01/22 20:24:47;;;;;;;19.17;12.32;;;;;;;5.42;68.93;98552.19;7902384;36;21473;-69
2021/01/22 20:29:50;;;;;;;23.98;12.98;;;;;;;5.38;68.60;98564.00;7894770;36;20205;-69
2021/01/22 20:34:53;;;;;;;17.45;11.30;;;;;;;5.34;68.62;98554.56;7852043;36;20554;-70
2021/01/22 20:39:55;;;;;;;22.02;10.27;;;;;;;5.44;68.87;98560.03;7852716;36;21282;-71
2021/01/22 20:44:58;;;;;;;20.27;11.18;;;;;;;5.45;69.15;98575.78;7851035;36;20257;-71
2021/01/22 20:50:01;;;;;;;27.52;12.52;;;;;;;5.44;68.86;98570.63;7831305;36;20150;-69
2021/01/22 20:55:07;;;;;;;23.52;12.07;;;;;;;5.45;68.63;98582.91;7847118;36;20656;-69
2021/01/22 21:00:12;;;;;;;25.13;12.85;;;;;;;5.35;69.29;98580.94;7845735;36;20463;-69
2021/01/22 21:05:15;;;;;;;23.87;11.20;;;;;;;5.43;69.14;98590.97;7887104;36;20446;-71
2021/01/22 21:10:17;;;;;;;18.45;11.00;;;;;;;5.42;69.78;98594.56;7888938;36;20173;-70
2021/01/22 21:15:21;;;;;;;16.10;9.60;;;;;;;5.48;69.55;98590.63;7893797;36;20459;-69
2021/01/22 21:20:24;;;;;;;21.88;11.13;;;;;;;5.55;69.19;98586.56;7898150;36;21918;-69
2021/01/22 21:25:26;;;;;;;17.60;10.60;;;;;;;5.56;69.04;98582.94;7894656;36;20451;-69
2021/01/22 21:30:30;;;;;;;19.75;10.73;;;;;;;5.58;68.85;98581.88;7886472;36;20472;-69
2021/01/22 21:35:33;;;;;;;20.40;10.77;;;;;;;5.60;69.06;98580.94;7893301;36;20458;-71
2021/01/22 21:40:36;;;;;;;20.65;10.40;;;;;;;5.58;69.32;98581.88;7896213;36;20479;-70
2021/01/22 21:45:40;;;;;;;17.85;10.57;;;;;;;5.47;68.79;98597.72;7872706;36;20522;-70
2021/01/22 21:50:42;;;;;;;22.47;11.10;;;;;;;5.30;69.15;98611.38;7891228;36;20439;-70
2021/01/22 21:55:45;;;;;;;19.90;11.25;;;;;;;5.29;69.64;98605.22;7894839;36;20312;-70
2021/01/22 22:00:48;;;;;;;24.13;11.65;;;;;;;5.31;69.75;98619.19;7872942;36;20974;-70
2021/01/22 22:05:50;;;;;;;21.35;12.43;;;;;;;5.26;69.44;98616.03;7853477;36;20189;-70
2021/01/22 22:10:53;;;;;;;20.88;13.07;;;;;;;5.24;69.51;98619.78;7838144;36;20472;-70
2021/01/22 22:15:56;;;;;;;20.87;12.07;;;;;;;5.15;69.41;98618.63;7838995;36;20518;-70
2021/01/22 22:20:59;;;;;;;21.20;10.50;;;;;;;5.15;70.39;98621.25;7840547;36;21394;-70
2021/01/22 22:26:02;;;;;;;20.13;10.70;;;;;;;5.21;70.08;98622.63;7839673;36;20459;-70
2021/01/22 22:31:06;;;;;;;17.48;10.23;;;;;;;5.24;69.77;98638.31;7840963;36;20481;-70
2021/01/22 22:36:09;;;;;;;20.15;10.40;;;;;;;5.23;69.57;98640.06;7840771;36;20459;-70
2021/01/22 22:41:11;;;;;;;16.17;10.10;;;;;;;5.20;69.71;98631.53;7820806;36;20147;-72
2021/01/22 22:46:16;;;;;;;17.85;10.38;;;;;;;5.08;69.79;98620.03;7841820;36;20926;-71
2021/01/22 22:51:18;;;;;;;19.00;10.73;;;;;;;5.02;70.12;98626.63;7843863;36;20455;-69
2021/01/22 22:56:21;;;;;;;16.83;9.80;;;;;;;5.02;70.22;98626.63;7836142;36;20194;-70
2021/01/22 23:01:24;;;;;;;22.93;11.60;;;;;;;5.10;70.07;98611.03;7830558;36;20471;-70
2021/01/22 23:06:27;;;;;;;23.27;12.88;;;;;;;5.04;69.87;98623.84;7841311;36;20616;-70
2021/01/22 23:11:29;;;;;;;29.63;13.90;;;;;;;4.94;69.88;98628.09;7838193;36;20539;-71
2021/01/22 23:16:32;;;;;;;24.73;13.85;;;;;;;4.77;70.27;98622.22;7892523;36;20483;-70
2021/01/22 23:21:35;;;;;;;26.02;13.15;;;;;;;4.72;70.27;98613.78;7892349;36;20309;-69
2021/01/22 23:26:39;;;;;;;20.30;11.83;;;;;;;4.68;70.23;98610.47;7889315;36;20458;-69
2021/01/22 23:31:43;;;;;;;23.10;13.37;;;;;;;4.68;70.38;98607.00;7876148;36;21227;-69
2021/01/22 23:36:46;;;;;;;23.57;13.87;;;;;;;4.72;70.76;98603.19;7856251;36;20617;-69
2021/01/22 23:41:48;;;;;;;25.63;13.30;;;;;;;4.70;70.55;98604.25;7850630;36;20481;-69
2021/01/22 23:46:51;;;;;;;24.50;12.97;;;;;;;4.72;70.55;98599.69;7891431;36;20165;-70
2021/01/22 23:51:54;;;;;;;21.47;11.73;;;;;;;4.73;70.53;98590.81;7893547;36;20456;-70